Time;durP1;ratioP1;P1;durP2;ratioP2;P2;SDS_P1;SDS_P2;PMS_P1;PMS_P2;Temp;Humidity;BMP_temperature;BMP_pressure;BME280_temperature;BME280_humidity;BME280_pressure;Samples;Min_cycle;Max_cycle;Signal;HPM_P1;HPM_P2
2021/10/23 00:00:52;;;;;;;7.70;4.05;;;;;;;;;;4916078;29;20035;-37
2021/10/23 00:03:18;;;;;;;10.52;4.50;;;;;;;;;;4916169;29;20043;-37
2021/10/23 00:05:43;;;;;;;5.25;3.80;;;;;;;;;;4914845;29;20028;-37
2021/10/23 00:08:09;;;;;;;6.70;3.70;;;;;;;;;;4915915;29;20040;-37
2021/10/23 00:10:34;;;;;;;9.93;4.13;;;;;;;;;;4916304;29;20539;-36
2021/10/23 00:13:00;;;;;;;5.03;3.95;;;;;;;;;;4915924;29;20040;-37
2021/10/23 00:15:25;;;;;;;6.47;3.88;;;;;;;;;;4915776;29;20023;-38
2021/10/23 00:17:51;;;;;;;6.85;3.40;;;;;;;;;;4916109;29;20048;-37
2021/10/23 00:20:16;;;;;;;4.70;3.05;;;;;;;;;;4915884;29;20479;-37
2021/10/23 00:22:42;;;;;;;9.68;3.90;;;;;;;;;;4915717;29;20087;-37
2021/10/23 00:25:07;;;;;;;3.92;3.20;;;;;;;;;;4915579;29;20482;-41
2021/10/23 00:27:33;;;;;;;4.63;3.20;;;;;;;;;;4915749;29;20088;-37
2021/10/23 00:29:59;;;;;;;4.88;3.10;;;;;;;;;;4914010;29;20020;-37
2021/10/23 00:32:25;;;;;;;5.13;3.10;;;;;;;;;;4915827;29;20063;-37
2021/10/23 00:34:50;;;;;;;4.50;3.20;;;;;;;;;;4915494;29;20392;-37
2021/10/23 00:37:16;;;;;;;3.95;2.83;;;;;;;;;;4915734;29;20091;-37
2021/10/23 00:39:41;;;;;;;6.63;3.42;;;;;;;;;;4915429;29;20088;-37
2021/10/23 00:42:07;;;;;;;4.55;3.22;;;;;;;;;;4914252;29;20028;-37
2021/10/23 00:44:37;;;;;;;4.53;2.65;;;;;;;;;;4915685;29;20020;-37
2021/10/23 00:47:06;;;;;;;4.82;2.85;;;;;;;;;;4915750;29;20139;-37
2021/10/23 00:49:32;;;;;;;6.88;3.10;;;;;;;;;;4915357;29;20468;-38
2021/10/23 00:51:58;;;;;;;5.45;3.05;;;;;;;;;;4915245;29;20032;-37
2021/10/23 00:54:25;;;;;;;3.65;2.97;;;;;;;;;;4915500;29;20103;-38
2021/10/23 00:56:51;;;;;;;5.72;3.45;;;;;;;;;;4915265;29;20131;-37
2021/10/23 00:59:16;;;;;;;3.47;2.80;;;;;;;;;;4915368;29;20534;-37
2021/10/23 01:01:42;;;;;;;4.47;2.97;;;;;;;;;;4915492;29;20495;-37
2021/10/23 01:04:07;;;;;;;6.05;3.15;;;;;;;;;;4915079;29;20027;-37
2021/10/23 01:06:34;;;;;;;7.82;3.30;;;;;;;;;;4915274;29;20170;-37
2021/10/23 01:08:59;;;;;;;6.68;3.40;;;;;;;;;;4915091;29;20189;-37
2021/10/23 01:11:26;;;;;;;4.40;3.05;;;;;;;;;;4914081;29;20107;-37
2021/10/23 01:13:51;;;;;;;3.45;2.45;;;;;;;;;;4915101;29;20024;-38
2021/10/23 01:16:17;;;;;;;5.70;2.70;;;;;;;;;;4915027;29;20035;-37
2021/10/23 01:18:44;;;;;;;3.80;2.47;;;;;;;;;;4915248;29;20032;-37
2021/10/23 01:21:09;;;;;;;4.57;2.65;;;;;;;;;;4914849;29;20511;-37
2021/10/23 01:23:35;;;;;;;5.97;2.90;;;;;;;;;;4913858;29;20063;-37
2021/10/23 01:26:00;;;;;;;4.93;3.53;;;;;;;;;;4913880;29;20044;-37
2021/10/23 01:28:26;;;;;;;5.85;3.55;;;;;;;;;;4914894;29;20032;-37
2021/10/23 01:30:55;;;;;;;4.43;3.28;;;;;;;;;;4913775;29;20056;-37
2021/10/23 01:33:20;;;;;;;5.30;3.08;;;;;;;;;;4914628;29;20048;-37
2021/10/23 01:35:46;;;;;;;10.07;3.80;;;;;;;;;;4915021;29;20024;-37
2021/10/23 01:38:11;;;;;;;4.55;3.22;;;;;;;;;;4915016;29;20044;-37
2021/10/23 01:40:37;;;;;;;4.53;2.80;;;;;;;;;;4914950;29;20380;-37
2021/10/23 01:43:03;;;;;;;5.88;3.97;;;;;;;;;;4917039;29;20024;-37
2021/10/23 01:45:29;;;;;;;4.93;3.30;;;;;;;;;;4933129;29;20418;-36
2021/10/23 01:47:55;;;;;;;3.38;2.75;;;;;;;;;;4918539;29;20039;-37
2021/10/23 01:50:22;;;;;;;6.32;3.78;;;;;;;;;;4918767;29;20032;-37
2021/10/23 01:52:48;;;;;;;6.20;4.13;;;;;;;;;;4918260;29;20096;-37
2021/10/23 01:55:14;;;;;;;9.13;3.22;;;;;;;;;;4918369;29;20024;-37
2021/10/23 01:57:40;;;;;;;4.63;3.30;;;;;;;;;;4918323;29;20352;-37
2021/10/23 02:00:07;;;;;;;3.35;2.72;;;;;;;;;;4918329;29;20084;-37
2021/10/23 02:02:37;;;;;;;3.75;3.00;;;;;;;;;;4918317;29;20024;-38
2021/10/23 02:05:03;;;;;;;6.07;3.72;;;;;;;;;;4918237;29;20055;-37
2021/10/23 02:07:28;;;;;;;3.75;2.83;;;;;;;;;;4918496;29;20035;-37
2021/10/23 02:09:54;;;;;;;5.93;3.67;;;;;;;;;;4918396;29;20487;-37
2021/10/23 02:12:19;;;;;;;5.88;3.53;;;;;;;;;;4917978;29;20044;-37
2021/10/23 02:14:46;;;;;;;6.22;2.92;;;;;;;;;;4918093;29;20095;-37
2021/10/23 02:17:11;;;;;;;5.28;3.75;;;;;;;;;;4918001;29;20024;-37
2021/10/23 02:19:37;;;;;;;4.95;3.30;;;;;;;;;;4917960;29;20044;-37
2021/10/23 02:22:03;;;;;;;4.63;3.13;;;;;;;;;;4918016;29;20016;-37
2021/10/23 02:24:28;;;;;;;5.55;3.22;;;;;;;;;;4917810;29;20035;-37
2021/10/23 02:26:54;;;;;;;7.28;2.70;;;;;;;;;;4918216;29;20031;-37
2021/10/23 02:29:19;;;;;;;5.97;3.15;;;;;;;;;;4932408;29;20040;-37
2021/10/23 02:31:45;;;;;;;4.53;3.08;;;;;;;;;;4917755;29;20076;-37
2021/10/23 02:34:11;;;;;;;5.40;3.40;;;;;;;;;;4917509;29;20043;-37
2021/10/23 02:36:36;;;;;;;8.82;2.92;;;;;;;;;;4917683;29;20028;-37
2021/10/23 02:39:02;;;;;;;4.88;2.65;;;;;;;;;;4917672;29;20050;-37
2021/10/23 02:41:27;;;;;;;4.35;2.85;;;;;;;;;;4917584;29;20059;-37
2021/10/23 02:43:53;;;;;;;5.78;3.15;;;;;;;;;;4917447;29;20032;-37
2021/10/23 02:46:19;;;;;;;4.68;3.58;;;;;;;;;;4917770;29;20020;-37
2021/10/23 02:48:45;;;;;;;6.85;4.43;;;;;;;;;;4917497;29;20035;-38
2021/10/23 02:51:10;;;;;;;7.20;2.63;;;;;;;;;;4917336;29;20076;-37
2021/10/23 02:53:36;;;;;;;5.22;3.30;;;;;;;;;;4917080;29;20106;-37
2021/10/23 02:56:01;;;;;;;4.18;2.97;;;;;;;;;;4917646;29;20482;-37
2021/10/23 02:58:27;;;;;;;7.60;3.10;;;;;;;;;;4917520;29;20040;-37
2021/10/23 03:00:52;;;;;;;4.72;2.55;;;;;;;;;;4917303;29;20087;-37
2021/10/23 03:03:18;;;;;;;6.43;3.55;;;;;;;;;;4917110;29;20028;-37
2021/10/23 03:05:44;;;;;;;4.45;2.88;;;;;;;;;;4917513;29;20087;-37
2021/10/23 03:08:09;;;;;;;4.05;3.33;;;;;;;;;;4917113;29;20139;-38
2021/10/23 03:10:35;;;;;;;10.43;3.13;;;;;;;;;;4917259;29;20489;-37
2021/10/23 03:13:00;;;;;;;5.03;3.20;;;;;;;;;;4917038;29;20501;-37
2021/10/23 03:15:25;;;;;;;3.72;2.70;;;;;;;;;;4917016;29;20483;-37
2021/10/23 03:17:51;;;;;;;11.63;3.38;;;;;;;;;;4917033;29;20432;-37
2021/10/23 03:20:16;;;;;;;3.55;2.55;;;;;;;;;;4916761;29;20027;-36
2021/10/23 03:22:42;;;;;;;3.30;2.80;;;;;;;;;;4917216;29;20028;-37
2021/10/23 03:25:08;;;;;;;9.40;3.83;;;;;;;;;;4916882;29;20051;-37
2021/10/23 03:27:39;;;;;;;3.97;2.90;;;;;;;;;;4916757;29;20480;-36
2021/10/23 03:30:05;;;;;;;3.92;2.88;;;;;;;;;;4917067;29;20044;-37
2021/10/23 03:32:31;;;;;;;6.18;3.40;;;;;;;;;;4916710;29;20028;-37
2021/10/23 03:34:59;;;;;;;4.60;3.13;;;;;;;;;;4916430;29;20056;-37
2021/10/23 03:37:27;;;;;;;5.18;3.60;;;;;;;;;;4916551;29;20073;-37
2021/10/23 03:39:52;;;;;;;5.00;3.33;;;;;;;;;;4916587;29;20048;-38
2021/10/23 03:42:18;;;;;;;4.32;3.30;;;;;;;;;;4915307;29;20030;-37
2021/10/23 03:44:44;;;;;;;4.40;2.95;;;;;;;;;;4916443;29;20070;-37
2021/10/23 03:47:10;;;;;;;6.28;3.42;;;;;;;;;;4916686;29;20059;-37
2021/10/23 03:49:36;;;;;;;7.55;3.42;;;;;;;;;;4916302;29;20122;-37
2021/10/23 03:52:03;;;;;;;6.63;3.85;;;;;;;;;;4916635;29;20021;-38
2021/10/23 03:54:28;;;;;;;4.63;3.22;;;;;;;;;;4916462;29;20847;-37
2021/10/23 03:56:54;;;;;;;3.80;2.88;;;;;;;;;;4916244;29;20031;-37
2021/10/23 03:59:19;;;;;;;3.97;2.50;;;;;;;;;;4916192;29;20062;-39
2021/10/23 04:01:46;;;;;;;6.43;3.42;;;;;;;;;;4916080;29;20048;-37
2021/10/23 04:04:11;;;;;;;5.90;2.35;;;;;;;;;;4915852;29;20028;-38
2021/10/23 04:06:38;;;;;;;5.50;3.40;;;;;;;;;;4915910;29;20028;-37
2021/10/23 04:09:03;;;;;;;5.88;3.55;;;;;;;;;;4916047;29;20058;-37
2021/10/23 04:11:29;;;;;;;9.07;4.25;;;;;;;;;;4916261;29;20028;-37
2021/10/23 04:13:54;;;;;;;8.48;4.25;;;;;;;;;;4916153;29;20387;-37
2021/10/23 04:16:20;;;;;;;5.25;3.67;;;;;;;;;;4915794;29;20387;-37
2021/10/23 04:18:45;;;;;;;7.55;3.45;;;;;;;;;;4915858;29;20059;-37
2021/10/23 04:21:13;;;;;;;5.57;3.53;;;;;;;;;;4930401;29;20029;-37
2021/10/23 04:23:39;;;;;;;8.23;3.80;;;;;;;;;;4914523;29;20108;-37
2021/10/23 04:26:04;;;;;;;4.88;3.17;;;;;;;;;;4915792;29;20024;-37
2021/10/23 04:28:30;;;;;;;6.85;4.05;;;;;;;;;;4915553;29;20099;-37
2021/10/23 04:30:55;;;;;;;8.52;5.07;;;;;;;;;;4915936;29;20026;-37
2021/10/23 04:33:21;;;;;;;6.10;4.65;;;;;;;;;;4915553;29;20120;-37
2021/10/23 04:35:46;;;;;;;6.05;4.55;;;;;;;;;;4898652;29;20444;-37
2021/10/23 04:38:12;;;;;;;4.95;3.30;;;;;;;;;;4915401;29;20086;-37
2021/10/23 04:40:38;;;;;;;5.22;3.55;;;;;;;;;;4915475;29;20064;-37
2021/10/23 04:43:04;;;;;;;9.70;4.38;;;;;;;;;;4915525;29;20036;-37
2021/10/23 04:45:29;;;;;;;5.70;3.92;;;;;;;;;;4915369;29;20024;-37
2021/10/23 04:47:55;;;;;;;8.57;3.92;;;;;;;;;;4915413;29;20480;-37
2021/10/23 04:50:20;;;;;;;5.85;3.88;;;;;;;;;;4915425;29;20050;-37
2021/10/23 04:52:46;;;;;;;6.68;4.15;;;;;;;;;;4913972;29;20032;-37
2021/10/23 04:55:11;;;;;;;9.18;4.05;;;;;;;;;;4915257;29;20548;-37
2021/10/23 04:57:37;;;;;;;7.82;3.58;;;;;;;;;;4915234;29;20480;-37
2021/10/23 05:00:03;;;;;;;5.40;3.70;;;;;;;;;;4915232;29;20032;-37
2021/10/23 05:02:29;;;;;;;7.35;4.32;;;;;;;;;;4915229;29;20032;-37
2021/10/23 05:04:54;;;;;;;5.45;3.42;;;;;;;;;;4915400;29;20111;-37
2021/10/23 05:07:19;;;;;;;4.97;3.78;;;;;;;;;;4915343;29;20153;-37
2021/10/23 05:09:45;;;;;;;7.90;4.47;;;;;;;;;;4915157;29;20079;-37
2021/10/23 05:12:10;;;;;;;14.85;4.57;;;;;;;;;;4915195;29;20032;-37
2021/10/23 05:14:36;;;;;;;8.15;5.03;;;;;;;;;;4915135;29;20383;-37
2021/10/23 05:17:01;;;;;;;12.45;3.63;;;;;;;;;;4915057;29;20044;-37
2021/10/23 05:19:27;;;;;;;4.72;3.38;;;;;;;;;;4914959;29;20043;-37
2021/10/23 05:21:53;;;;;;;6.43;3.88;;;;;;;;;;4914976;29;20119;-37
2021/10/23 05:24:18;;;;;;;7.13;3.67;;;;;;;;;;4914839;29;20020;-37
2021/10/23 05:26:44;;;;;;;5.97;4.30;;;;;;;;;;4915057;29;20027;-37
2021/10/23 05:29:09;;;;;;;9.63;4.10;;;;;;;;;;4914898;29;20111;-37
2021/10/23 05:31:35;;;;;;;5.30;3.33;;;;;;;;;;4915137;29;20040;-37
2021/10/23 05:34:00;;;;;;;7.55;3.63;;;;;;;;;;4914985;29;20048;-37
2021/10/23 05:36:26;;;;;;;5.25;3.97;;;;;;;;;;4914802;29;20115;-37
2021/10/23 05:38:51;;;;;;;6.80;4.07;;;;;;;;;;4915053;29;20119;-37
2021/10/23 05:41:16;;;;;;;8.02;3.22;;;;;;;;;;4914981;29;20032;-37
2021/10/23 05:43:42;;;;;;;7.35;3.88;;;;;;;;;;4914759;29;20376;-37
2021/10/23 05:46:07;;;;;;;5.72;4.22;;;;;;;;;;4914937;29;20028;-37
2021/10/23 05:48:33;;;;;;;5.65;3.85;;;;;;;;;;4914804;29;20031;-37
2021/10/23 05:50:58;;;;;;;5.63;3.90;;;;;;;;;;4914715;29;20532;-37
2021/10/23 05:53:24;;;;;;;6.00;3.70;;;;;;;;;;4914973;29;20028;-37
2021/10/23 05:55:49;;;;;;;6.47;3.78;;;;;;;;;;4914945;29;20378;-37
2021/10/23 05:58:14;;;;;;;8.43;3.35;;;;;;;;;;4914605;29;20035;-37
2021/10/23 06:00:49;;;;;;;6.57;3.78;;;;;;;;;;4914995;29;20052;-37
2021/10/23 06:03:18;;;;;;;5.05;2.97;;;;;;;;;;4914569;29;20040;-37
2021/10/23 06:05:44;;;;;;;4.30;3.05;;;;;;;;;;4914742;29;20088;-37
2021/10/23 06:08:09;;;;;;;5.45;2.88;;;;;;;;;;4914884;29;20035;-37
2021/10/23 06:10:35;;;;;;;3.83;2.50;;;;;;;;;;4914839;29;20036;-37
2021/10/23 06:13:00;;;;;;;4.15;2.67;;;;;;;;;;4914802;29;20032;-37
2021/10/23 06:15:25;;;;;;;4.63;3.20;;;;;;;;;;4914495;29;20024;-37
2021/10/23 06:17:51;;;;;;;5.78;3.10;;;;;;;;;;4914426;29;20037;-37
2021/10/23 06:20:16;;;;;;;4.80;2.65;;;;;;;;;;4913206;29;20032;-38
2021/10/23 06:22:49;;;;;;;5.00;3.15;;;;;;;;;;4914559;29;20028;-37
2021/10/23 06:25:17;;;;;;;3.05;2.60;;;;;;;;;;4913194;29;20036;-38
2021/10/23 06:27:42;;;;;;;5.40;2.78;;;;;;;;;;4914746;29;20046;-36
2021/10/23 06:30:08;;;;;;;6.15;3.08;;;;;;;;;;4918118;29;20495;-37
2021/10/23 06:32:33;;;;;;;3.78;2.50;;;;;;;;;;4932418;29;20107;-37
2021/10/23 06:34:58;;;;;;;3.78;2.80;;;;;;;;;;4917706;29;20135;-36
2021/10/23 06:37:24;;;;;;;3.28;2.35;;;;;;;;;;4916498;29;20042;-37
2021/10/23 06:39:50;;;;;;;4.38;3.20;;;;;;;;;;4917607;29;20100;-36
2021/10/23 06:42:16;;;;;;;4.65;2.65;;;;;;;;;;4917910;29;20056;-37
2021/10/23 06:44:43;;;;;;;3.67;2.75;;;;;;;;;;4917823;29;20067;-37
2021/10/23 06:47:09;;;;;;;5.25;2.75;;;;;;;;;;4917808;29;20349;-37
2021/10/23 06:49:34;;;;;;;3.00;2.40;;;;;;;;;;4917715;29;20043;-37
2021/10/23 06:52:00;;;;;;;3.17;2.47;;;;;;;;;;4917405;29;20027;-37
2021/10/23 06:54:25;;;;;;;4.22;2.60;;;;;;;;;;4917246;29;20526;-37
2021/10/23 06:56:51;;;;;;;3.85;1.88;;;;;;;;;;4917418;29;20016;-37
2021/10/23 06:59:16;;;;;;;6.28;3.03;;;;;;;;;;4917187;29;20043;-37
2021/10/23 07:01:42;;;;;;;6.15;2.30;;;;;;;;;;4917279;29;20060;-37
2021/10/23 07:04:07;;;;;;;2.75;2.50;;;;;;;;;;4917264;29;20059;-37
2021/10/23 07:06:33;;;;;;;2.42;2.00;;;;;;;;;;4917412;29;20024;-36
2021/10/23 07:08:58;;;;;;;3.67;2.20;;;;;;;;;;4917068;29;20078;-37
2021/10/23 07:11:24;;;;;;;3.38;2.65;;;;;;;;;;4917125;29;20016;-37
2021/10/23 07:13:50;;;;;;;4.68;1.90;;;;;;;;;;4917091;29;20032;-37
2021/10/23 07:16:15;;;;;;;4.22;2.63;;;;;;;;;;4916936;29;20024;-37
2021/10/23 07:18:41;;;;;;;2.60;2.20;;;;;;;;;;4917294;29;20091;-37
2021/10/23 07:21:06;;;;;;;3.53;2.65;;;;;;;;;;4916927;29;20099;-36
2021/10/23 07:23:32;;;;;;;4.75;2.40;;;;;;;;;;4917143;29;20073;-37
2021/10/23 07:25:58;;;;;;;2.38;1.95;;;;;;;;;;4916975;29;20035;-36
2021/10/23 07:28:23;;;;;;;1.77;1.38;;;;;;;;;;4916707;29;20087;-37
2021/10/23 07:30:49;;;;;;;5.43;2.05;;;;;;;;;;4916856;29;20028;-37
2021/10/23 07:33:14;;;;;;;3.50;2.42;;;;;;;;;;4916578;29;20062;-37
2021/10/23 07:35:40;;;;;;;2.53;1.98;;;;;;;;;;4915803;29;20036;-37
2021/10/23 07:38:05;;;;;;;2.92;1.85;;;;;;;;;;4916942;29;20044;-37
2021/10/23 07:40:31;;;;;;;2.70;1.75;;;;;;;;;;4915532;29;20468;-37
2021/10/23 07:42:56;;;;;;;3.67;2.15;;;;;;;;;;4916515;29;20039;-37
2021/10/23 07:45:22;;;;;;;4.10;2.20;;;;;;;;;;4931136;29;20019;-36
2021/10/23 07:47:47;;;;;;;3.22;2.58;;;;;;;;;;4916692;29;20112;-37
2021/10/23 07:50:13;;;;;;;5.80;2.45;;;;;;;;;;4916482;29;20107;-36
2021/10/23 07:52:39;;;;;;;2.90;2.10;;;;;;;;;;4916348;29;20043;-37
2021/10/23 07:55:05;;;;;;;3.38;1.83;;;;;;;;;;4916335;29;20024;-37
2021/10/23 07:57:31;;;;;;;1.83;1.55;;;;;;;;;;4916474;29;20032;-37
2021/10/23 07:59:56;;;;;;;2.85;1.80;;;;;;;;;;4916139;29;20107;-37
2021/10/23 08:02:22;;;;;;;3.03;1.90;;;;;;;;;;4916462;29;20471;-37
2021/10/23 08:04:47;;;;;;;3.85;2.08;;;;;;;;;;4916110;29;20416;-37
2021/10/23 08:07:13;;;;;;;2.97;1.73;;;;;;;;;;4916125;29;20028;-36
2021/10/23 08:09:38;;;;;;;2.80;1.55;;;;;;;;;;4916357;29;20099;-36
2021/10/23 08:12:05;;;;;;;2.88;1.40;;;;;;;;;;4915936;29;20036;-37
2021/10/23 08:14:32;;;;;;;2.33;1.55;;;;;;;;;;4916179;29;20364;-37
2021/10/23 08:16:57;;;;;;;1.80;1.33;;;;;;;;;;4916020;29;20400;-36
2021/10/23 08:19:23;;;;;;;5.55;1.70;;;;;;;;;;4916006;29;20036;-36
2021/10/23 08:21:49;;;;;;;7.47;1.67;;;;;;;;;;4916192;29;20122;-37
2021/10/23 08:24:14;;;;;;;4.55;1.63;;;;;;;;;;4916034;29;20531;-37
2021/10/23 08:26:40;;;;;;;1.35;1.17;;;;;;;;;;4915954;29;20051;-37
2021/10/23 08:29:06;;;;;;;3.67;1.60;;;;;;;;;;4915731;29;20036;-37
2021/10/23 08:31:31;;;;;;;5.43;1.95;;;;;;;;;;4915713;29;20043;-37
2021/10/23 08:33:58;;;;;;;2.50;1.40;;;;;;;;;;4915413;29;20059;-37
2021/10/23 08:36:23;;;;;;;5.55;2.00;;;;;;;;;;4915522;29;20024;-37
2021/10/23 08:38:50;;;;;;;4.68;1.33;;;;;;;;;;4915737;29;20051;-37
2021/10/23 08:41:16;;;;;;;3.72;1.40;;;;;;;;;;4915517;29;20399;-37
2021/10/23 08:43:43;;;;;;;3.38;1.67;;;;;;;;;;4915448;29;20028;-37
2021/10/23 08:46:22;;;;;;;2.40;1.23;;;;;;;;;;4915544;29;20024;-37
2021/10/23 08:48:51;;;;;;;1.83;1.27;;;;;;;;;;4915383;29;20044;-36
2021/10/23 08:51:17;;;;;;;2.63;1.42;;;;;;;;;;4915082;29;20061;-37
2021/10/23 08:53:43;;;;;;;2.20;1.80;;;;;;;;;;4915612;29;20028;-37
2021/10/23 08:56:09;;;;;;;1.55;1.45;;;;;;;;;;4915608;29;20027;-42
2021/10/23 08:58:35;;;;;;;2.78;1.63;;;;;;;;;;4915144;29;20043;-37
2021/10/23 09:01:01;;;;;;;3.47;1.67;;;;;;;;;;4915218;29;20046;-38
2021/10/23 09:03:27;;;;;;;2.22;1.58;;;;;;;;;;4915167;29;20034;-36
2021/10/23 09:05:52;;;;;;;2.20;1.52;;;;;;;;;;4913998;29;20024;-37
2021/10/23 09:08:18;;;;;;;2.63;1.80;;;;;;;;;;4915019;29;20472;-37
2021/10/23 09:10:48;;;;;;;2.97;1.50;;;;;;;;;;4914010;29;20052;-37
2021/10/23 09:13:24;;;;;;;4.07;1.80;;;;;;;;;;4915063;29;20547;-38
2021/10/23 09:15:50;;;;;;;2.47;1.45;;;;;;;;;;4915131;29;20119;-37
2021/10/23 09:18:15;;;;;;;3.78;1.25;;;;;;;;;;4914999;29;20119;-38
2021/10/23 09:20:43;;;;;;;2.10;1.60;;;;;;;;;;4915347;29;20028;-37
2021/10/23 09:23:18;;;;;;;4.93;1.48;;;;;;;;;;4913905;29;20111;-37
2021/10/23 09:25:45;;;;;;;3.42;1.98;;;;;;;;;;4915263;29;20028;-37
2021/10/23 09:28:13;;;;;;;2.38;1.25;;;;;;;;;;4914944;29;20559;-37
2021/10/23 09:30:46;;;;;;;1.83;1.42;;;;;;;;;;4915018;29;20033;-36
2021/10/23 09:33:13;;;;;;;2.50;1.52;;;;;;;;;;4915012;29;20381;-37
2021/10/23 09:35:39;;;;;;;2.33;1.48;;;;;;;;;;4915119;29;20032;-38
2021/10/23 09:38:05;;;;;;;1.80;1.23;;;;;;;;;;4915149;29;20411;-37
2021/10/23 09:40:31;;;;;;;2.20;2.00;;;;;;;;;;4914861;29;20020;-36
2021/10/23 09:43:23;;;;;;;2.55;2.08;;;;;;;;;;4914799;29;20036;-37
2021/10/23 09:45:58;;;;;;;2.33;1.60;;;;;;;;;;4911214;29;20052;-38
2021/10/23 09:48:38;;;;;;;1.45;1.25;;;;;;;;;;4915083;29;20080;-37
2021/10/23 09:51:12;;;;;;;3.63;1.63;;;;;;;;;;4914876;29;20546;-37
2021/10/23 09:53:38;;;;;;;2.78;1.70;;;;;;;;;;4914658;29;20063;-37
2021/10/23 09:56:06;;;;;;;3.78;1.45;;;;;;;;;;4914825;29;20479;-36
2021/10/23 09:58:31;;;;;;;3.28;1.48;;;;;;;;;;4914782;29;20124;-37
2021/10/23 10:00:57;;;;;;;3.38;1.52;;;;;;;;;;4913516;29;20454;-37
2021/10/23 10:03:23;;;;;;;3.22;1.77;;;;;;;;;;4915914;29;20040;-37
2021/10/23 10:05:55;;;;;;;3.22;2.15;;;;;;;;;;4918247;29;20073;-37
2021/10/23 10:08:21;;;;;;;1.47;1.27;;;;;;;;;;4918485;29;20029;-37
2021/10/23 10:10:47;;;;;;;1.45;1.30;;;;;;;;;;4917267;29;20031;-36
2021/10/23 10:13:16;;;;;;;4.22;1.83;;;;;;;;;;4918319;29;20036;-37
2021/10/23 10:15:45;;;;;;;1.60;1.25;;;;;;;;;;4918368;29;20360;-37
2021/10/23 10:18:13;;;;;;;1.52;1.33;;;;;;;;;;4918250;29;20387;-37
2021/10/23 10:20:42;;;;;;;3.40;1.88;;;;;;;;;;4916761;29;20021;-37
2021/10/23 10:23:10;;;;;;;1.77;1.50;;;;;;;;;;4918076;29;20067;-37
2021/10/23 10:25:36;;;;;;;3.90;1.88;;;;;;;;;;4932615;29;20556;-37
2021/10/23 10:28:12;;;;;;;1.75;1.15;;;;;;;;;;4918143;29;20051;-37
2021/10/23 10:30:39;;;;;;;2.25;1.35;;;;;;;;;;4916603;29;20043;-37
2021/10/23 10:33:18;;;;;;;2.85;1.63;;;;;;;;;;4917578;29;20060;-37
2021/10/23 10:35:54;;;;;;;2.17;1.50;;;;;;;;;;4917737;29;20043;-37
2021/10/23 10:44:09;;;;;;;3.38;1.38;;;;;;;;;;4906842;29;20111;-42
2021/10/23 10:46:53;;;;;;;2.20;1.15;;;;;;;;;;4917561;29;20075;-37
2021/10/23 10:49:37;;;;;;;3.03;1.02;;;;;;;;;;4917735;29;20047;-37
2021/10/23 10:52:23;;;;;;;2.50;1.70;;;;;;;;;;4917489;29;20032;-36
2021/10/23 10:55:07;;;;;;;0.82;0.70;;;;;;;;;;4917377;29;20036;-37
2021/10/23 10:57:52;;;;;;;1.30;0.65;;;;;;;;;;4917317;29;20403;-38
2021/10/23 11:00:18;;;;;;;0.35;0.35;;;;;;;;;;4917399;29;20040;-37
2021/10/23 11:02:43;;;;;;;0.60;0.40;;;;;;;;;;4917549;29;20035;-38
2021/10/23 11:05:09;;;;;;;0.95;0.52;;;;;;;;;;4917369;29;20043;-37
2021/10/23 11:07:55;;;;;;;0.45;0.45;;;;;;;;;;4917286;29;20039;-37
2021/10/23 11:10:39;;;;;;;0.93;0.63;;;;;;;;;;4902869;29;20051;-37
2021/10/23 11:13:24;;;;;;;3.38;0.85;;;;;;;;;;4916269;29;20064;-37
2021/10/23 11:15:50;;;;;;;0.65;0.57;;;;;;;;;;4916890;29;20472;-37
2021/10/23 11:18:16;;;;;;;0.93;0.43;;;;;;;;;;4917010;29;20038;-36
2021/10/23 11:20:45;;;;;;;0.45;0.32;;;;;;;;;;4917020;29;20496;-37
2021/10/23 11:23:18;;;;;;;0.95;0.82;;;;;;;;;;4916875;29;20024;-37
2021/10/23 11:25:43;;;;;;;0.38;0.38;;;;;;;;;;4916889;29;20171;-37
2021/10/23 11:28:10;;;;;;;0.73;0.70;;;;;;;;;;4916980;29;20590;-36
2021/10/23 11:30:40;;;;;;;0.70;0.50;;;;;;;;;;4916698;29;20043;-37
2021/10/23 11:33:06;;;;;;;0.80;0.30;;;;;;;;;;4915447;29;20428;-40
2021/10/23 11:35:32;;;;;;;0.88;0.40;;;;;;;;;;4916985;29;20111;-37
2021/10/23 11:37:57;;;;;;;4.00;0.77;;;;;;;;;;4916623;29;20032;-36
2021/10/23 11:40:24;;;;;;;0.52;0.52;;;;;;;;;;4916849;29;20060;-37
2021/10/23 11:42:51;;;;;;;0.38;0.38;;;;;;;;;;4916459;29;20858;-36
2021/10/23 11:45:24;;;;;;;1.20;0.43;;;;;;;;;;4916874;29;20036;-37
2021/10/23 11:47:51;;;;;;;0.90;0.57;;;;;;;;;;4916781;29;20108;-37
2021/10/23 11:50:17;;;;;;;1.10;0.52;;;;;;;;;;4916796;29;20060;-36
2021/10/23 11:52:46;;;;;;;0.85;0.40;;;;;;;;;;4916254;29;20028;-36
2021/10/23 11:55:15;;;;;;;0.50;0.50;;;;;;;;;;4916396;29;20068;-38
2021/10/23 11:57:42;;;;;;;0.90;0.40;;;;;;;;;;4916191;29;20040;-37
2021/10/23 12:00:15;;;;;;;0.40;0.32;;;;;;;;;;4916449;29;20428;-37
2021/10/23 12:02:50;;;;;;;3.10;0.95;;;;;;;;;;4916131;29;20024;-37
2021/10/23 12:05:36;;;;;;;0.68;0.50;;;;;;;;;;4916161;29;20044;-37
2021/10/23 12:08:14;;;;;;;2.72;0.40;;;;;;;;;;4877315;29;20075;-37
2021/10/23 12:10:58;;;;;;;0.20;0.20;;;;;;;;;;4916321;29;20036;-37
2021/10/23 12:13:24;;;;;;;1.33;0.70;;;;;;;;;;4915903;29;20064;-37
2021/10/23 12:15:59;;;;;;;4.03;0.80;;;;;;;;;;4916316;29;20055;-37
2021/10/23 12:18:26;;;;;;;3.15;0.57;;;;;;;;;;4915721;29;20095;-37
2021/10/23 12:20:54;;;;;;;1.77;0.55;;;;;;;;;;4915941;29;20475;-37
2021/10/23 12:23:38;;;;;;;2.05;0.60;;;;;;;;;;4915904;29;20036;-39
2021/10/23 12:26:04;;;;;;;0.55;0.50;;;;;;;;;;4915328;29;20051;-37
2021/10/23 12:28:30;;;;;;;0.30;0.30;;;;;;;;;;4915876;29;20028;-37
2021/10/23 12:30:55;;;;;;;0.75;0.50;;;;;;;;;;4914678;29;20592;-37
2021/10/23 12:33:21;;;;;;;2.65;0.57;;;;;;;;;;4914246;29;20056;-37
2021/10/23 12:35:47;;;;;;;5.75;0.50;;;;;;;;;;4915839;29;20055;-37
2021/10/23 12:38:12;;;;;;;0.47;0.38;;;;;;;;;;4915902;29;20480;-37
2021/10/23 12:40:39;;;;;;;1.40;0.50;;;;;;;;;;4915550;29;20192;-37
2021/10/23 12:43:09;;;;;;;1.48;0.73;;;;;;;;;;4915557;29;20515;-37
2021/10/23 12:45:37;;;;;;;0.70;0.57;;;;;;;;;;4930025;29;20043;-38
2021/10/23 12:48:06;;;;;;;4.10;0.63;;;;;;;;;;4915515;29;20032;-37
2021/10/23 12:50:33;;;;;;;2.63;0.70;;;;;;;;;;4915384;29;20032;-37
2021/10/23 12:52:58;;;;;;;0.88;0.40;;;;;;;;;;4915385;29;20058;-37
2021/10/23 12:55:25;;;;;;;0.50;0.43;;;;;;;;;;4915477;29;20550;-37
2021/10/23 12:57:50;;;;;;;0.98;0.55;;;;;;;;;;4915232;29;20024;-37
2021/10/23 13:00:16;;;;;;;0.73;0.70;;;;;;;;;;4915388;29;20071;-37
2021/10/23 13:02:42;;;;;;;0.88;0.50;;;;;;;;;;4915196;29;20024;-37
2021/10/23 13:05:08;;;;;;;1.77;0.32;;;;;;;;;;4915499;29;20038;-36
2021/10/23 13:07:33;;;;;;;2.58;0.63;;;;;;;;;;4915258;29;20401;-37
2021/10/23 13:10:00;;;;;;;3.20;0.55;;;;;;;;;;4915120;29;20084;-37
2021/10/23 13:12:25;;;;;;;0.73;0.60;;;;;;;;;;4913818;29;20360;-37
2021/10/23 13:14:51;;;;;;;0.63;0.50;;;;;;;;;;4929751;29;20028;-37
2021/10/23 13:17:17;;;;;;;1.73;0.50;;;;;;;;;;4913862;29;20378;-37
2021/10/23 13:19:43;;;;;;;1.38;0.65;;;;;;;;;;4914957;29;20036;-36
2021/10/23 13:22:08;;;;;;;1.45;0.40;;;;;;;;;;4915032;29;20016;-37
2021/10/23 13:24:34;;;;;;;0.77;0.50;;;;;;;;;;4914899;29;20111;-37
2021/10/23 13:27:00;;;;;;;0.47;0.40;;;;;;;;;;4914944;29;20028;-37
2021/10/23 13:29:26;;;;;;;1.38;0.40;;;;;;;;;;4914920;29;20057;-37
2021/10/23 13:31:52;;;;;;;0.93;0.52;;;;;;;;;;4914981;29;20051;-37
2021/10/23 13:34:18;;;;;;;0.68;0.43;;;;;;;;;;4929398;29;20059;-37
2021/10/23 13:36:43;;;;;;;1.80;0.70;;;;;;;;;;4914868;29;20368;-37
2021/10/23 13:39:09;;;;;;;1.35;0.68;;;;;;;;;;4918739;29;20043;-37
2021/10/23 13:41:38;;;;;;;3.22;0.70;;;;;;;;;;4917849;29;20468;-36
2021/10/23 13:44:07;;;;;;;0.82;0.68;;;;;;;;;;4918795;29;20164;-36
2021/10/23 13:46:33;;;;;;;1.00;0.65;;;;;;;;;;4918670;29;20107;-37
2021/10/23 13:48:59;;;;;;;0.50;0.50;;;;;;;;;;4918592;29;20040;-36
2021/10/23 13:51:25;;;;;;;0.90;0.43;;;;;;;;;;4918648;29;20048;-37
2021/10/23 13:53:51;;;;;;;0.88;0.55;;;;;;;;;;4918672;29;20032;-37
2021/10/23 13:56:17;;;;;;;0.95;0.40;;;;;;;;;;4918627;29;20020;-37
2021/10/23 13:58:42;;;;;;;0.75;0.63;;;;;;;;;;4917075;29;20051;-37
2021/10/23 14:01:08;;;;;;;2.05;0.52;;;;;;;;;;4918431;29;20095;-36
2021/10/23 14:03:37;;;;;;;1.10;0.40;;;;;;;;;;4918389;29;20051;-37
2021/10/23 14:06:02;;;;;;;2.13;0.80;;;;;;;;;;4918362;29;20486;-37
2021/10/23 14:08:28;;;;;;;0.70;0.57;;;;;;;;;;4918465;29;20056;-37
2021/10/23 14:10:53;;;;;;;1.95;0.70;;;;;;;;;;4918308;29;20108;-37
2021/10/23 14:13:20;;;;;;;4.43;0.52;;;;;;;;;;4918268;29;20060;-37
2021/10/23 14:15:46;;;;;;;1.10;0.73;;;;;;;;;;4918087;29;20020;-37
2021/10/23 14:18:12;;;;;;;0.90;0.75;;;;;;;;;;4918077;29;20032;-37
2021/10/23 14:20:38;;;;;;;0.32;0.32;;;;;;;;;;4918258;29;20028;-37
2021/10/23 14:23:12;;;;;;;0.63;0.38;;;;;;;;;;4918020;29;20468;-37
2021/10/23 14:25:39;;;;;;;0.82;0.50;;;;;;;;;;4917964;29;20032;-37
2021/10/23 14:28:38;;;;;;;1.00;0.52;;;;;;;;;;4916868;29;20024;-37
2021/10/23 14:30:56;;;;;;;3.53;0.70;;;;;;;;;;4917942;29;20506;-37
2021/10/23 14:33:22;;;;;;;1.00;0.65;;;;;;;;;;4917737;29;20048;-37
2021/10/23 14:35:49;;;;;;;0.98;0.60;;;;;;;;;;4917859;29;20060;-37
2021/10/23 14:38:15;;;;;;;0.82;0.45;;;;;;;;;;4917798;29;20052;-37
2021/10/23 14:40:41;;;;;;;1.10;0.77;;;;;;;;;;4917696;29;20116;-37
2021/10/23 14:43:07;;;;;;;1.13;0.70;;;;;;;;;;4917742;29;20135;-37
2021/10/23 14:45:33;;;;;;;1.70;0.82;;;;;;;;;;4917682;29;20535;-37
2021/10/23 14:47:59;;;;;;;1.08;0.73;;;;;;;;;;4917647;29;20036;-37